Goiatuba, Brazil
Current Conditions -  °F | °C
As of 12:00 PM on Friday 24 Oct 2014 (Local Time) from SBUL Reporting Station
Few Clouds Few Clouds  
Wind Chill: 82°   Ceiling: Unl
Heat Index: 82°   Visibility: 6mi
Dew Point: 57°   Wind: 5mph
Humidity: 42%   Direction: 330°NNW
Pressure: 30.09"   Gusts: NA
Location:  18.01°S, 49.35°W
Report Text: SBUL 241400Z 33004KT 9999 FEW040 28/14 Q1019
Loading
Personal Weather Stations






























Interactive Weather Map
Tropical Storm Tracking
New forecast layout! Learn more

10-Day Weather Forecast

Advertisements
Track Severe Weather on mobile